Aérodrome :
LOGIN :

S'inscrire | Disclaimer

   EN    FR    IT 

 










Légende :    VFR   VFR Marginal   IFR   IFR Intensif   IFR Très Intensif
Visi : 
Plafond : 
>= 8 km
>= 3000ft
5 à 8 km
1000 à 3000 ft
1500m à 5 km
500 à 1000 ft
800 à 1500m
200 à 500 ft
< 800m
< 200 ft
Symboles :   Orages  Brouillard  Fortes neiges  Fortes précipitations  Vent > 20 kt
SIGMETs :   Divers  Orages  Givrage  Turbulence  Onde Orograph.  Cendres Volcan.







- Altitude de l'aérodrome : 1306 ft
- Code IATA : ACH


LSZR - Alten Rhein

DERNIER METAR :
  • 011720Z 28008KT 9999 OVC060 08/01 Q1010 NOSIG RMK L

METARs EXPIRÉS :
  • 011650Z 28008KT 9999 OVC060 08/01 Q1010 NOSIG RMK L
  • 011620Z 28008KT 9999 OVC060 08/01 Q1010 NOSIG RMK L
  • 011550Z 28010KT 9999 BKN060 OVC080 08/M00 Q1010 NOSIG RMK K
  • 011520Z 28010KT 9999 BKN060 OVC080 08/M00 Q1010 NOSIG RMK K
  • 011450Z 25006KT 210V300 9999 BKN060 09/M01 Q1010 NOSIG RMK J

TAF TAF LSZR
Valide du 01 à 15h jusqu'au 02 à 00h UTC


011425Z 0115/0124 24010KT 9999 BKN050
TEMPO 0118/0124 RA
ATIS : +41 71 858 51 66
Pas de NOTAMs connus pour ce terrain.



MET'MAP, la Météo Aéronautique d'un coup d'oeil ! - Copyright ORBIFLY Décembre 2007 - Disclaimer

ORBIFLY MET'MAP TEAM :

Programmation & Développement : Alexandra Zaïnal
Conception & Développement : Baudouin d'Aumeries
Co-Programmation & Développement : Marc-Olivier Méhu
Soutien technique & logistique : Manuel Goepfert

Contact : metmap@orbifly.com




SOURCES & CREDITS :

   NOAA